Terminal Aerodrome Forecast
Issued by NWS

Current Version | Previous Version | Text Only | Print | Product List | Glossary On
Versions: 1 2 3 4 5 6 7 8 9 10 11 12 13 14 15 16 17 18 19 20 21
704
FTUS43 KABR 280520
TAFMBG
TAF
KMBG 280520Z 2806/2906 35004KT P6SM BKN130
     FM281800 36007KT P6SM VCSH BKN080
     FM290200 31004KT P6SM SCT200=

USA.gov is the U.S. government's official web portal to all federal, state and local government web resources and services.